Time;durP1;ratioP1;P1;durP2;ratioP2;P2;SDS_P1;SDS_P2;PMS_P1;PMS_P2;Temp;Humidity;BMP_temperature;BMP_pressure;BME280_temperature;BME280_humidity;BME280_pressure;Samples;Min_cycle;Max_cycle;Signal;HPM_P1;HPM_P2
2021/12/04 00:00:23;;;;;;;14.20;10.88;;;;;;;-2.28;79.67;99295.25;1757848;80;21502;-61
2021/12/04 00:02:53;;;;;;;15.18;10.80;;;;;;;-2.28;79.87;99296.94;1766282;80;21555;-62
2021/12/04 00:05:21;;;;;;;15.48;11.25;;;;;;;-2.26;79.70;99297.80;1757984;80;21819;-61
2021/12/04 00:07:48;;;;;;;16.60;11.18;;;;;;;-2.31;79.79;99296.52;1763184;80;21547;-60
2021/12/04 00:10:21;;;;;;;14.20;10.85;;;;;;;-2.28;79.69;99299.52;1749092;80;21485;-61
2021/12/04 00:12:47;;;;;;;16.95;11.25;;;;;;;-2.30;79.58;99305.94;1749219;80;21550;-61
2021/12/04 00:15:14;;;;;;;16.10;11.20;;;;;;;-2.30;79.58;99307.23;1761025;80;21441;-60
2021/12/04 00:17:41;;;;;;;18.00;10.20;;;;;;;-2.34;79.47;99302.92;1760631;80;21804;-61
2021/12/04 00:20:10;;;;;;;15.73;10.97;;;;;;;-2.33;79.48;99298.66;1757756;80;21481;-61
2021/12/04 00:22:37;;;;;;;13.28;10.45;;;;;;;-2.39;79.20;99295.20;1755728;80;21646;-60
2021/12/04 00:25:06;;;;;;;17.55;10.53;;;;;;;-2.43;79.30;99293.47;1761076;80;21541;-60
2021/12/04 00:27:32;;;;;;;14.18;10.18;;;;;;;-2.46;79.28;99301.61;1758984;80;21526;-60
2021/12/04 00:29:59;;;;;;;13.80;10.40;;;;;;;-2.46;79.36;99303.74;1749694;80;21667;-60
2021/12/04 00:32:35;;;;;;;17.03;10.40;;;;;;;-2.50;79.60;99302.02;1751200;80;21459;-62
2021/12/04 00:35:33;;;;;;;13.65;10.50;;;;;;;-2.53;79.79;99303.71;1754312;80;20986;-60
2021/12/04 00:51:18;;;;;;;13.72;10.23;;;;;;;-2.56;80.03;99314.87;1754398;80;21506;-61
2021/12/04 00:53:47;;;;;;;14.20;10.30;;;;;;;-2.58;80.00;99308.42;1767763;80;21042;-61
2021/12/04 00:56:14;;;;;;;12.10;9.70;;;;;;;-2.57;79.82;99312.70;1766926;80;22016;-61
2021/12/04 00:58:41;;;;;;;;;;;;;;;-2.58;79.79;99320.41;1764742;80;21498;-61
2021/12/04 01:01:08;;;;;;;16.45;9.90;;;;;;;-2.59;79.87;99314.84;1753498;80;20439;-60
2021/12/04 01:03:35;;;;;;;16.77;11.53;;;;;;;-2.63;79.77;99313.96;1761768;80;21463;-61
2021/12/04 01:06:02;;;;;;;14.63;10.40;;;;;;;-2.67;79.74;99310.95;1765594;80;21002;-62
2021/12/04 01:08:29;;;;;;;16.52;11.65;;;;;;;-2.69;79.91;99311.36;1760851;80;21843;-60
2021/12/04 01:10:56;;;;;;;15.05;9.70;;;;;;;-2.72;79.98;99315.63;1751610;80;21565;-59
2021/12/04 01:13:23;;;;;;;14.60;11.15;;;;;;;-2.74;79.99;99315.18;1704601;83;21463;-59
2021/12/04 01:15:50;;;;;;;16.67;10.60;;;;;;;-2.71;79.48;99321.20;1700986;83;21524;-62
2021/12/04 01:18:19;;;;;;;15.70;12.18;;;;;;;-2.71;79.48;99321.20;1685940;83;21958;-61
2021/12/04 01:20:46;;;;;;;20.00;11.35;;;;;;;-2.70;79.69;99317.35;1691753;83;21837;-63
2021/12/04 01:23:15;;;;;;;18.35;11.03;;;;;;;-2.68;79.53;99322.08;1698918;83;21060;-62
2021/12/04 01:25:43;;;;;;;17.70;11.08;;;;;;;-2.72;79.56;99322.06;1723646;82;21033;-63
2021/12/04 01:28:10;;;;;;;17.15;11.05;;;;;;;-2.75;79.72;99324.17;1698791;83;21585;-62
2021/12/04 01:30:37;;;;;;;12.85;8.93;;;;;;;-2.75;79.82;99322.89;1707873;82;21455;-60
2021/12/04 01:33:04;;;;;;;19.07;11.48;;;;;;;-2.76;79.98;99323.32;1699936;83;21606;-60
2021/12/04 01:35:31;;;;;;;14.75;10.53;;;;;;;-2.81;80.19;99330.15;1743325;80;21515;-60
2021/12/04 01:37:58;;;;;;;14.35;10.58;;;;;;;-2.76;80.22;99326.33;1754581;80;21451;-62
2021/12/04 01:40:27;;;;;;;15.65;10.68;;;;;;;-2.74;80.14;99328.05;1759912;80;20983;-59
2021/12/04 01:42:54;;;;;;;15.98;10.45;;;;;;;-2.77;80.14;99322.02;1747329;80;21423;-60
2021/12/04 01:45:21;;;;;;;17.92;11.28;;;;;;;-2.67;80.06;99321.67;1756003;80;21732;-61
2021/12/04 01:47:48;;;;;;;14.83;9.55;;;;;;;-2.71;79.87;99323.37;1760798;80;21562;-60
2021/12/04 01:50:15;;;;;;;13.13;10.18;;;;;;;-2.72;79.95;99328.06;1755667;80;21503;-61
2021/12/04 01:52:44;;;;;;;22.90;10.75;;;;;;;-2.72;79.86;99328.50;1747221;80;21468;-60
2021/12/04 01:55:11;;;;;;;13.67;9.17;;;;;;;-2.72;79.62;99333.64;1748117;80;21523;-61
2021/12/04 01:57:38;;;;;;;13.38;9.83;;;;;;;-2.72;79.62;99333.64;1760150;80;21903;-61
2021/12/04 02:00:06;;;;;;;15.27;9.73;;;;;;;-2.69;79.76;99342.66;1714694;80;21467;-61
2021/12/04 02:02:35;;;;;;;14.25;9.45;;;;;;;-2.69;79.69;99352.55;1750353;80;21025;-60
2021/12/04 02:05:03;;;;;;;15.33;9.67;;;;;;;-2.74;79.85;99351.65;1753153;80;21441;-61
2021/12/04 02:07:30;;;;;;;16.73;9.70;;;;;;;-2.76;79.69;99355.49;1749457;80;21496;-62
2021/12/04 02:09:58;;;;;;;16.10;9.85;;;;;;;-2.79;79.73;99358.47;1740138;80;22012;-60
2021/12/04 02:12:25;;;;;;;16.12;9.63;;;;;;;-2.80;79.72;99348.61;1752823;80;21066;-60
2021/12/04 02:14:52;;;;;;;13.20;10.18;;;;;;;-2.81;79.63;99349.45;1753930;80;21030;-60
2021/12/04 02:17:19;;;;;;;12.95;7.47;;;;;;;-2.81;79.57;99351.17;1737487;80;20952;-60
2021/12/04 02:19:47;;;;;;;16.67;10.08;;;;;;;-2.87;79.50;99349.41;1740539;80;21511;-61
2021/12/04 02:22:15;;;;;;;14.10;9.48;;;;;;;-2.86;79.41;99348.58;1747236;80;21481;-61
2021/12/04 02:24:42;;;;;;;12.88;9.88;;;;;;;-2.81;79.40;99360.17;1757690;80;21494;-61
2021/12/04 02:27:12;;;;;;;14.85;9.28;;;;;;;-2.85;79.38;99361.01;1745066;80;21474;-61
2021/12/04 02:29:45;;;;;;;13.50;9.15;;;;;;;-2.85;79.47;99360.58;1748781;80;21430;-60
2021/12/04 02:32:07;;;;;;;15.13;9.68;;;;;;;-2.84;79.24;99369.18;1751917;80;21437;-61
2021/12/04 02:34:34;;;;;;;;;;;;;;;-2.83;78.94;99371.73;1758920;80;21903;-61
2021/12/04 02:37:01;;;;;;;12.85;8.78;;;;;;;-2.88;78.89;99373.44;1749159;80;20435;-61
2021/12/04 02:39:33;;;;;;;14.90;10.08;;;;;;;-2.94;79.08;99372.97;1747880;80;21440;-60
2021/12/04 02:42:00;;;;;;;13.03;8.80;;;;;;;-2.93;79.27;99372.53;1753794;80;20987;-60
2021/12/04 02:44:39;;;;;;;15.45;9.60;;;;;;;-2.91;79.27;99366.13;1755745;80;21569;-60
2021/12/04 02:47:06;;;;;;;11.95;9.08;;;;;;;-2.90;79.34;99359.70;1738413;80;22046;-61
2021/12/04 02:49:34;;;;;;;11.45;7.35;;;;;;;-2.90;79.58;99365.25;1755230;80;21392;-61
2021/12/04 02:52:07;;;;;;;17.07;9.40;;;;;;;-2.94;79.62;99364.37;1750963;80;21525;-61
2021/12/04 02:54:34;;;;;;;14.98;8.95;;;;;;;-2.92;79.56;99363.95;1751321;80;21456;-61
2021/12/04 02:57:03;;;;;;;12.37;8.93;;;;;;;-2.90;79.49;99363.56;1750135;80;21459;-61
2021/12/04 02:59:33;;;;;;;12.20;8.53;;;;;;;-2.94;79.49;99369.11;1744654;80;21871;-60
2021/12/04 03:02:00;;;;;;;15.28;9.60;;;;;;;-2.93;79.50;99364.81;1747902;80;21531;-61
2021/12/04 03:04:27;;;;;;;13.47;9.47;;;;;;;-2.94;79.41;99370.80;1755851;80;20931;-61
2021/12/04 03:06:55;;;;;;;12.85;8.30;;;;;;;-2.93;79.19;99369.96;1743120;80;21780;-60
2021/12/04 03:09:22;;;;;;;13.03;8.65;;;;;;;-2.92;79.06;99369.09;1737771;80;21519;-61
2021/12/04 03:11:49;;;;;;;14.53;9.70;;;;;;;-2.98;78.70;99369.91;1744669;80;21898;-60
2021/12/04 03:14:19;;;;;;;9.55;8.40;;;;;;;-2.98;78.70;99369.91;1762096;80;21910;-61
2021/12/04 03:16:46;;;;;;;14.33;8.43;;;;;;;-3.01;78.67;99367.77;1753309;80;21712;-61
2021/12/04 03:19:13;;;;;;;12.45;8.83;;;;;;;-3.03;78.64;99369.04;1752368;80;21545;-60
2021/12/04 03:21:40;;;;;;;15.30;9.60;;;;;;;-3.07;78.93;99368.98;1749823;80;21021;-61
2021/12/04 03:24:12;;;;;;;19.37;8.75;;;;;;;-3.09;79.15;99365.11;1747938;80;21977;-61
2021/12/04 03:26:38;;;;;;;15.23;8.63;;;;;;;-3.14;79.39;99371.95;1749547;80;21400;-61
2021/12/04 03:29:09;;;;;;;12.33;8.53;;;;;;;-3.19;79.82;99368.47;1750629;80;21456;-61
2021/12/04 03:42:40;;;;;;;16.87;8.43;;;;;;;-3.21;79.94;99379.17;1739706;80;21522;-61
2021/12/04 03:45:08;;;;;;;12.35;9.10;;;;;;;-3.19;79.80;99384.75;1716242;82;21504;-62
2021/12/04 03:47:39;;;;;;;13.10;8.90;;;;;;;-3.23;79.84;99386.88;1754788;80;21511;-61
2021/12/04 03:50:05;;;;;;;14.95;9.50;;;;;;;-3.28;79.90;99392.39;1759237;80;21727;-61
2021/12/04 03:52:33;;;;;;;18.12;8.80;;;;;;;-3.29;79.59;99393.25;1745517;80;21084;-61
2021/12/04 03:54:59;;;;;;;12.47;9.23;;;;;;;-3.29;79.30;99388.11;1753095;80;21438;-61
2021/12/04 03:57:26;;;;;;;13.43;9.93;;;;;;;-3.30;79.23;99390.66;1744023;80;21489;-62
2021/12/04 03:59:53;;;;;;;14.67;8.70;;;;;;;-3.30;79.17;99392.80;1739606;80;20986;-61
2021/12/04 04:02:20;;;;;;;16.30;9.95;;;;;;;-3.30;79.05;99394.52;1749348;80;21795;-61
2021/12/04 04:04:47;;;;;;;16.25;9.55;;;;;;;-3.34;79.08;99391.05;1740876;80;21467;-60
2021/12/04 04:07:14;;;;;;;13.35;9.08;;;;;;;-3.32;79.00;99389.36;1744666;80;21399;-61
2021/12/04 04:09:42;;;;;;;20.70;9.20;;;;;;;-3.34;79.02;99388.48;1740990;80;21131;-60
2021/12/04 04:12:09;;;;;;;14.85;9.60;;;;;;;-3.35;79.02;99395.34;1755731;80;21456;-61
2021/12/04 04:14:38;;;;;;;15.25;8.83;;;;;;;-3.35;78.98;99395.78;1743976;80;21473;-61
2021/12/04 04:17:05;;;;;;;13.07;9.07;;;;;;;-3.34;78.88;99396.20;1751152;80;21581;-61
2021/12/04 04:19:32;;;;;;;16.62;9.40;;;;;;;-3.34;78.81;99393.19;1745158;80;21205;-60
2021/12/04 04:21:58;;;;;;;16.60;8.17;;;;;;;-3.33;78.73;99390.22;1757560;80;20959;-62
2021/12/04 04:24:27;;;;;;;11.90;7.90;;;;;;;-3.34;78.60;99391.05;1755346;80;20931;-61
2021/12/04 04:26:55;;;;;;;12.25;8.58;;;;;;;-3.41;79.06;99387.58;1756034;80;21820;-60
2021/12/04 04:29:22;;;;;;;12.20;8.45;;;;;;;-3.42;79.16;99393.55;1745527;80;21508;-61
2021/12/04 04:31:49;;;;;;;17.17;8.78;;;;;;;-3.41;79.37;99394.41;1747259;80;21544;-62
2021/12/04 04:34:23;;;;;;;10.48;7.78;;;;;;;-3.37;79.23;99394.47;1753894;80;21425;-61
2021/12/04 04:37:07;;;;;;;11.18;8.33;;;;;;;-3.30;79.07;99403.09;1748988;81;21593;-60
2021/12/04 05:12:16;;;;;;;16.48;9.28;;;;;;;-3.45;77.89;99415.80;1742215;81;21588;-60
2021/12/04 05:14:32;;;;;;;16.25;10.23;;;;;;;-3.48;77.57;99417.92;1748390;81;21030;-60
2021/12/04 05:17:06;;;;;;;14.93;9.10;;;;;;;-3.51;77.82;99419.17;1744519;80;21586;-60
2021/12/04 05:19:38;;;;;;;14.33;9.80;;;;;;;-3.58;78.26;99418.27;1748920;81;21933;-61
2021/12/04 05:21:57;;;;;;;17.35;10.88;;;;;;;-3.60;78.84;99422.52;1672291;84;21479;-60
2021/12/04 05:24:24;;;;;;;16.35;10.55;;;;;;;-3.59;79.07;99421.66;1695301;83;21478;-59
2021/12/04 05:26:51;;;;;;;18.52;10.63;;;;;;;-3.56;79.13;99422.98;1694356;82;21486;-60
2021/12/04 05:29:17;;;;;;;17.65;11.35;;;;;;;-3.54;79.30;99418.72;1698642;83;21430;-60
2021/12/04 05:31:44;;;;;;;17.10;10.82;;;;;;;-3.52;79.33;99424.73;1699113;83;21527;-60
2021/12/04 05:34:11;;;;;;;16.20;10.95;;;;;;;-3.55;79.39;99420.84;1703190;82;21641;-61
2021/12/04 05:36:38;;;;;;;15.07;10.47;;;;;;;-3.55;79.39;99420.84;1715308;82;21703;-61
2021/12/04 05:39:05;;;;;;;17.05;10.80;;;;;;;-3.50;79.29;99430.30;1720124;82;21451;-60
2021/12/04 05:41:33;;;;;;;17.73;10.38;;;;;;;-3.48;79.19;99431.18;1727433;82;21475;-62
2021/12/04 05:44:04;;;;;;;17.05;10.48;;;;;;;-3.50;78.89;99432.88;1731651;82;21844;-60
2021/12/04 05:46:34;;;;;;;16.20;10.63;;;;;;;-3.49;78.50;99442.33;1727219;81;21561;-61
2021/12/04 05:49:02;;;;;;;18.85;10.58;;;;;;;-3.52;78.39;99446.59;1728967;82;21401;-61
2021/12/04 05:51:37;;;;;;;14.90;10.05;;;;;;;-3.54;78.26;99444.86;1729570;82;21487;-60
2021/12/04 05:56:43;;;;;;;19.92;11.73;;;;;;;-3.48;77.99;99447.89;1726467;82;21989;-60
2021/12/04 05:59:10;;;;;;;17.85;11.70;;;;;;;-3.47;77.87;99450.91;1721856;82;21526;-60
2021/12/04 06:01:37;;;;;;;15.88;10.63;;;;;;;-3.44;77.67;99456.09;1721510;82;21429;-61
2021/12/04 06:04:04;;;;;;;16.02;10.05;;;;;;;-3.45;77.56;99457.78;1722865;82;21590;-60
2021/12/04 06:06:31;;;;;;;14.03;9.73;;;;;;;-3.43;77.50;99464.23;1722321;82;21491;-60
2021/12/04 06:08:58;;;;;;;18.63;11.90;;;;;;;-3.41;77.29;99459.97;1713380;82;21865;-60
2021/12/04 06:11:25;;;;;;;15.48;10.45;;;;;;;-3.44;77.22;99462.09;1721575;82;21456;-60
2021/12/04 06:13:52;;;;;;;15.93;11.85;;;;;;;-3.45;77.32;99466.78;1699876;83;21585;-60
2021/12/04 06:16:19;;;;;;;18.48;11.73;;;;;;;-3.38;77.26;99476.72;1703677;83;21525;-60
2021/12/04 06:18:46;;;;;;;18.00;9.73;;;;;;;-3.38;77.15;99476.29;1697372;83;21656;-60
2021/12/04 06:23:45;;;;;;;17.15;11.43;;;;;;;-3.34;77.31;99483.62;1686274;82;22077;-61
2021/12/04 06:26:13;;;;;;;17.45;10.38;;;;;;;-3.36;77.35;99479.73;1727348;82;21524;-60
2021/12/04 06:28:40;;;;;;;;;;;;;;;-3.30;77.24;99484.52;1737174;82;21585;-60
2021/12/04 06:31:09;;;;;;;18.07;10.48;;;;;;;-3.36;77.23;99478.45;1718587;82;20412;-60
2021/12/04 06:33:37;;;;;;;19.95;12.23;;;;;;;-3.36;77.31;99477.17;1729353;82;22122;-61
2021/12/04 06:36:05;;;;;;;13.98;10.63;;;;;;;-3.36;77.57;99480.17;1719981;82;21447;-62
2021/12/04 06:38:33;;;;;;;20.40;15.80;;;;;;;-3.34;77.67;99483.62;1722567;82;21523;-61
2021/12/04 06:40:59;;;;;;;19.95;10.80;;;;;;;-3.30;77.83;99477.66;1714701;82;21498;-59
2021/12/04 06:43:26;;;;;;;19.90;12.57;;;;;;;-3.25;77.78;99476.44;1723941;82;21429;-60
2021/12/04 06:45:59;;;;;;;16.97;11.40;;;;;;;-3.24;77.96;99471.71;1703493;82;21731;-59
2021/12/04 06:48:24;;;;;;;21.80;14.07;;;;;;;-3.17;77.84;99472.22;1746649;80;21049;-59
2021/12/04 06:50:59;;;;;;;23.47;11.88;;;;;;;-3.16;77.96;99473.52;1749340;80;21543;-60
2021/12/04 06:54:23;;;;;;;19.55;12.30;;;;;;;-3.17;78.20;99470.93;1752111;80;21569;-59
2021/12/04 06:55:59;;;;;;;23.60;15.43;;;;;;;-3.11;78.26;99473.55;1725903;80;27289;-58
2021/12/04 06:58:27;;;;;;;20.62;14.00;;;;;;;-3.06;78.37;99477.47;1766665;80;21753;-58
2021/12/04 07:00:54;;;;;;;18.45;12.28;;;;;;;-3.01;78.51;99478.39;1758984;80;21479;-58
2021/12/04 07:03:21;;;;;;;24.92;12.07;;;;;;;-2.95;78.32;99475.43;1766526;80;21563;-58
2021/12/04 07:05:48;;;;;;;23.60;12.40;;;;;;;-2.91;78.23;99481.91;1766337;80;21573;-58
2021/12/04 07:08:16;;;;;;;17.20;10.50;;;;;;;-2.86;78.34;99483.67;1753898;80;21483;-58
2021/12/04 07:10:45;;;;;;;22.48;12.47;;;;;;;-2.87;78.39;99478.07;1762303;80;21675;-59
2021/12/04 07:13:12;;;;;;;17.32;11.10;;;;;;;-2.83;78.50;99475.95;1761433;80;22135;-57
2021/12/04 07:15:41;;;;;;;;;;;;;;;-2.77;78.60;99482.47;1759312;80;21483;-57
2021/12/04 07:18:09;;;;;;;20.80;9.98;;;;;;;-2.70;78.43;99488.51;1752402;80;20472;-57
2021/12/04 07:20:35;;;;;;;21.37;11.08;;;;;;;-2.64;78.55;99497.56;1750295;80;21440;-56
2021/12/04 07:23:02;;;;;;;20.80;11.40;;;;;;;-2.59;78.42;99492.03;1756454;80;21851;-58
2021/12/04 07:25:30;;;;;;;21.33;11.43;;;;;;;-2.52;78.50;99494.23;1752203;80;21452;-59
2021/12/04 07:27:57;;;;;;;18.20;11.40;;;;;;;-2.40;78.04;99493.46;1753829;80;21573;-59
2021/12/04 07:30:24;;;;;;;20.72;11.95;;;;;;;-2.42;77.98;99492.16;1746843;80;21570;-58
2021/12/04 07:32:54;;;;;;;20.23;12.55;;;;;;;-2.39;77.84;99492.19;1750904;80;21666;-60
2021/12/04 07:35:21;;;;;;;16.93;10.68;;;;;;;-2.38;77.59;99486.17;1744287;80;21582;-58
2021/12/04 07:37:48;;;;;;;19.87;11.38;;;;;;;-2.36;77.73;99488.77;1741712;80;21530;-60
2021/12/04 07:40:15;;;;;;;20.85;13.00;;;;;;;-2.36;77.58;99490.05;1742286;81;21421;-58
2021/12/04 07:42:42;;;;;;;21.37;11.13;;;;;;;-2.29;77.56;99487.95;1742360;81;21518;-63
2021/12/04 07:45:09;;;;;;;21.93;12.70;;;;;;;-2.27;77.53;99491.41;1742307;81;22394;-58
2021/12/04 07:47:36;;;;;;;18.25;12.18;;;;;;;-2.27;77.58;99496.55;1737969;81;21805;-59
2021/12/04 07:50:06;;;;;;;18.77;12.40;;;;;;;-2.23;77.55;99494.86;1741056;81;21613;-61
2021/12/04 07:52:33;;;;;;;21.33;13.08;;;;;;;-2.19;77.74;99494.88;1742635;81;21526;-59
2021/12/04 07:55:00;;;;;;;18.55;11.68;;;;;;;-2.17;77.64;99493.61;1742577;81;20994;-58
2021/12/04 07:57:27;;;;;;;20.90;12.87;;;;;;;-2.09;78.15;99491.95;1742273;81;21621;-58
2021/12/04 07:59:54;;;;;;;19.33;12.37;;;;;;;-2.03;77.56;99492.42;1742099;81;21578;-57
2021/12/04 08:02:21;;;;;;;19.35;12.00;;;;;;;-1.98;77.38;99497.16;1745713;81;21037;-58
2021/12/04 08:04:48;;;;;;;16.62;12.65;;;;;;;-1.93;77.49;99494.18;1740209;80;21562;-57
2021/12/04 08:07:15;;;;;;;17.70;12.73;;;;;;;-1.86;77.60;99495.94;1746088;80;21569;-59
2021/12/04 08:09:42;;;;;;;22.32;13.80;;;;;;;-1.87;76.73;99487.77;1741218;81;21483;-58
2021/12/04 08:12:10;;;;;;;23.60;14.53;;;;;;;-1.87;76.71;99492.91;1733072;81;22059;-60
2021/12/04 08:14:38;;;;;;;;;;;;;;;-1.85;77.13;99492.93;1751952;81;21018;-58
2021/12/04 08:17:05;;;;;;;21.40;12.28;;;;;;;-1.77;76.66;99488.26;1744148;81;20438;-59
2021/12/04 08:19:33;;;;;;;22.60;14.25;;;;;;;-1.71;76.83;99490.41;1747393;80;21584;-58
2021/12/04 08:22:00;;;;;;;20.32;13.50;;;;;;;-1.65;77.22;99483.57;1749115;80;21590;-57
2021/12/04 08:24:27;;;;;;;21.30;13.70;;;;;;;-1.50;77.28;99480.19;1730016;80;21768;-58
2021/12/04 08:26:54;;;;;;;22.73;15.43;;;;;;;-1.39;76.66;99473.78;1746038;81;21507;-57
2021/12/04 08:29:22;;;;;;;18.15;13.30;;;;;;;-1.34;76.29;99477.22;1749932;81;21622;-58
2021/12/04 08:31:50;;;;;;;22.58;15.08;;;;;;;-1.27;75.46;99485.41;1746002;80;21543;-58
2021/12/04 08:34:18;;;;;;;22.58;14.93;;;;;;;-1.25;75.17;99481.11;1746828;81;20983;-58
2021/12/04 08:36:45;;;;;;;23.47;15.72;;;;;;;-1.28;75.28;99478.95;1755934;81;22010;-58
2021/12/04 08:39:13;;;;;;;22.52;15.35;;;;;;;-1.23;75.57;99475.52;1743098;80;21484;-58
2021/12/04 08:41:40;;;;;;;;;;;;;;;-1.13;76.08;99480.70;1748383;80;21443;-58
2021/12/04 08:44:07;;;;;;;;;;;;;;;-0.98;75.88;99479.44;1754572;81;20145;-58
2021/12/04 08:46:37;;;;;;;23.95;15.32;;;;;;;-0.85;75.48;99473.45;1746437;80;20426;-58
2021/12/04 08:49:06;;;;;;;25.20;15.98;;;;;;;-0.78;74.52;99475.59;1752643;81;21486;-58
2021/12/04 08:51:34;;;;;;;26.77;16.70;;;;;;;-0.71;74.53;99469.58;1747678;80;21527;-58
2021/12/04 08:54:01;;;;;;;30.10;18.27;;;;;;;-0.67;73.61;99465.27;1750136;81;21539;-58
2021/12/04 08:56:28;;;;;;;25.57;18.55;;;;;;;-0.57;74.02;99468.27;1750993;81;21427;-59
2021/12/04 08:58:55;;;;;;;28.23;16.37;;;;;;;-0.51;73.65;99468.29;1733725;81;21591;-58
2021/12/04 09:01:25;;;;;;;29.72;16.32;;;;;;;-0.48;73.47;99465.69;1752252;80;22033;-60
2021/12/04 09:04:18;;;;;;;23.67;16.52;;;;;;;-0.41;73.25;99460.09;1750828;81;21016;-58
2021/12/04 09:06:46;;;;;;;23.38;16.45;;;;;;;-0.36;72.86;99448.45;1748883;80;20941;-56
2021/12/04 09:09:14;;;;;;;25.50;15.88;;;;;;;-0.24;73.31;99441.98;1763492;80;20950;-56
2021/12/04 09:11:48;;;;;;;26.30;16.82;;;;;;;-0.11;73.12;99450.56;1763767;80;21540;-57
2021/12/04 09:14:16;;;;;;;23.12;16.65;;;;;;;-0.06;72.36;99447.52;1763596;80;21402;-59
2021/12/04 09:16:44;;;;;;;24.02;15.93;;;;;;;-0.02;72.16;99447.93;1763678;80;21442;-60
2021/12/04 09:19:11;;;;;;;22.13;15.70;;;;;;;0.11;71.82;99447.02;1763897;80;21397;-60
2021/12/04 09:21:40;;;;;;;28.60;16.65;;;;;;;0.25;71.08;99439.67;1763586;80;21471;-59
2021/12/04 09:24:15;;;;;;;28.57;17.00;;;;;;;0.56;69.94;99440.36;1760257;80;21541;-58
2021/12/04 09:31:53;;;;;;;26.70;17.07;;;;;;;1.47;66.56;99427.63;1754087;80;21582;-57
2021/12/04 09:40:15;;;;;;;30.72;17.60;;;;;;;1.76;66.06;99423.88;1755731;80;21010;-59
2021/12/04 10:01:55;;;;;;;;;;;;;;;3.88;59.73;99409.05;1759824;80;21785;-57
2021/12/04 10:20:38;;;;;;;19.50;13.93;;;;;;;6.82;53.99;99386.46;1750461;81;21782;-57
2021/12/04 10:33:49;;;;;;;16.95;13.72;;;;;;;5.59;52.98;99380.38;1750013;81;21728;-58
2021/12/04 10:36:36;;;;;;;16.73;13.48;;;;;;;5.93;52.47;99370.32;1750787;81;21518;-58
2021/12/04 10:39:04;;;;;;;21.70;14.75;;;;;;;6.47;51.37;99366.19;1750507;81;21545;-58
2021/12/04 10:41:34;;;;;;;19.95;16.00;;;;;;;7.03;50.85;99365.30;1750724;81;21470;-58
2021/12/04 10:44:15;;;;;;;20.85;15.93;;;;;;;7.55;50.64;99366.60;1750477;81;21479;-59
2021/12/04 10:49:55;;;;;;;20.62;15.60;;;;;;;9.44;49.08;99350.16;1792022;78;22914;-60
2021/12/04 10:55:46;;;;;;;22.32;17.12;;;;;;;10.71;46.20;99339.59;1777255;80;22099;-59
2021/12/04 10:59:34;;;;;;;17.67;14.73;;;;;;;10.89;45.26;99335.23;1759033;80;21610;-59
2021/12/04 11:38:03;;;;;;;26.82;20.82;;;;;;;11.17;39.97;99304.06;1719430;82;21809;-62
2021/12/04 11:43:12;;;;;;;258.10;159.05;;;;;;;9.79;42.34;99308.84;1696393;82;21097;-60
2021/12/04 11:46:12;;;;;;;61.98;38.73;;;;;;;9.75;41.75;99306.34;1713762;83;21542;-60
2021/12/04 11:48:14;;;;;;;93.80;61.60;;;;;;;9.81;41.63;99310.94;1702933;83;21530;-58
2021/12/04 11:50:51;;;;;;;30.32;22.32;;;;;;;9.75;41.51;99301.09;1698891;82;21788;-60
2021/12/04 11:53:19;;;;;;;31.50;22.67;;;;;;;9.10;42.55;99304.38;1693663;83;21534;-61
2021/12/04 11:55:48;;;;;;;58.95;34.50;;;;;;;8.33;43.91;99302.20;1694337;83;21643;-60
2021/12/04 11:58:26;;;;;;;30.15;20.65;;;;;;;7.60;45.48;99301.89;1689752;83;21511;-63
2021/12/04 12:00:59;;;;;;;27.82;20.48;;;;;;;7.11;46.68;99300.53;1696739;83;21508;-61
2021/12/04 12:03:28;;;;;;;28.90;21.20;;;;;;;6.45;47.72;99301.39;1701757;83;21732;-60
2021/12/04 12:06:06;;;;;;;23.55;18.00;;;;;;;5.97;48.88;99304.58;1693624;83;21436;-59
2021/12/04 12:08:40;;;;;;;20.00;14.83;;;;;;;5.50;50.03;99305.45;1674748;83;21496;-61
2021/12/04 12:11:27;;;;;;;57.13;32.98;;;;;;;4.98;51.31;99309.84;1690596;83;21544;-60
2021/12/04 12:14:06;;;;;;;27.60;17.90;;;;;;;4.70;52.08;99312.73;1693934;83;21487;-59
2021/12/04 12:16:40;;;;;;;24.27;18.30;;;;;;;4.59;52.62;99309.08;1696262;83;21601;-59
2021/12/04 12:19:10;;;;;;;25.27;18.27;;;;;;;4.47;52.97;99305.02;1698916;83;21511;-58
2021/12/04 12:38:55;;;;;;;29.65;19.90;;;;;;;3.70;55.54;99301.03;1689144;83;21077;-59
2021/12/04 12:41:45;;;;;;;33.50;22.27;;;;;;;3.61;55.86;99296.01;1694633;82;21548;-67
2021/12/04 12:44:27;;;;;;;26.55;21.15;;;;;;;3.48;56.28;99289.34;1697160;83;21595;-59
2021/12/04 12:46:57;;;;;;;21.93;16.70;;;;;;;3.39;56.63;99291.70;1667736;83;21622;-60
2021/12/04 12:49:30;;;;;;;26.15;14.53;;;;;;;3.29;56.93;99292.73;1717760;81;21642;-62
2021/12/04 12:52:15;;;;;;;25.48;14.78;;;;;;;3.21;57.41;99293.34;1723535;82;20994;-64
2021/12/04 12:54:57;;;;;;;21.25;14.43;;;;;;;3.16;57.64;99289.95;1730463;81;21537;-59
2021/12/04 12:57:35;;;;;;;21.57;15.18;;;;;;;3.08;57.88;99292.70;1710609;82;21800;-59
2021/12/04 13:11:44;;;;;;;23.67;16.67;;;;;;;2.60;59.36;99283.55;1681241;83;21868;-57
2021/12/04 13:14:27;;;;;;;29.18;20.95;;;;;;;2.52;59.72;99283.67;1685444;83;21517;-57
2021/12/04 13:17:16;;;;;;;22.22;16.35;;;;;;;2.52;59.72;99289.74;1695666;83;21647;-59
2021/12/04 13:19:50;;;;;;;21.90;15.35;;;;;;;2.46;60.07;99287.67;1675183;83;21497;-57
2021/12/04 13:22:27;;;;;;;25.32;16.15;;;;;;;2.39;60.26;99282.16;1694374;83;21512;-58
2021/12/04 13:24:56;;;;;;;27.42;17.65;;;;;;;2.29;60.54;99288.77;1690287;83;21477;-58
2021/12/04 13:29:53;;;;;;;;;;;;;;;2.13;61.16;99275.63;1703745;83;21498;-58
2021/12/04 13:32:41;;;;;;;23.73;17.50;;;;;;;2.05;61.74;99276.16;1690548;83;20416;-58
2021/12/04 13:35:15;;;;;;;29.65;18.25;;;;;;;1.90;61.73;99274.63;1686888;83;20993;-57
2021/12/04 13:37:42;;;;;;;31.70;20.12;;;;;;;1.79;62.13;99273.91;1689097;83;21870;-57
2021/12/04 13:40:14;;;;;;;28.02;18.27;;;;;;;1.67;62.42;99281.42;1692919;83;21663;-58
2021/12/04 13:42:43;;;;;;;29.32;19.35;;;;;;;1.55;62.81;99283.28;1687915;83;21525;-57
2021/12/04 13:45:14;;;;;;;29.70;18.80;;;;;;;1.45;63.21;99279.09;1695252;83;21056;-57
2021/12/04 13:47:41;;;;;;;23.18;17.48;;;;;;;1.39;63.41;99275.26;1686461;83;20968;-56
2021/12/04 13:53:03;;;;;;;32.30;20.05;;;;;;;1.23;64.12;99276.33;1687195;83;21040;-58
2021/12/04 13:55:31;;;;;;;24.92;18.30;;;;;;;1.13;64.43;99272.95;1686707;83;21532;-59
2021/12/04 13:57:59;;;;;;;56.70;36.88;;;;;;;1.08;64.62;99271.72;1696002;83;21623;-57
2021/12/04 14:00:26;;;;;;;39.73;26.97;;;;;;;1.01;64.82;99276.53;1700718;83;21588;-58
2021/12/04 14:02:53;;;;;;;36.83;22.53;;;;;;;0.88;65.15;99272.34;1691429;83;22140;-58
2021/12/04 14:05:25;;;;;;;31.00;19.53;;;;;;;0.81;65.39;99269.39;1695173;83;21318;-58
2021/12/04 14:07:56;;;;;;;26.65;20.02;;;;;;;0.75;65.58;99269.89;1674354;83;21089;-60
2021/12/04 14:10:27;;;;;;;31.45;22.48;;;;;;;0.66;65.88;99273.85;1631552;86;21459;-58
2021/12/04 14:12:56;;;;;;;35.55;24.32;;;;;;;0.59;66.17;99276.06;1639561;86;21088;-58
2021/12/04 14:15:24;;;;;;;35.43;21.80;;;;;;;0.53;66.42;99277.41;1636452;86;21863;-58
2021/12/04 14:17:58;;;;;;;31.40;21.52;;;;;;;0.50;66.72;99280.86;1632936;85;21020;-58
2021/12/04 14:20:25;;;;;;;33.25;22.00;;;;;;;0.45;66.69;99283.06;1621061;87;21144;-58
2021/12/04 14:22:54;;;;;;;30.70;20.20;;;;;;;0.37;67.07;99283.97;1651153;84;21063;-59
2021/12/04 14:25:23;;;;;;;24.80;18.57;;;;;;;0.30;67.31;99279.73;1661092;84;21440;-59
2021/12/04 14:27:52;;;;;;;31.20;18.57;;;;;;;0.28;67.46;99284.03;1674904;84;21788;-59
2021/12/04 14:30:35;;;;;;;28.05;19.32;;;;;;;0.24;67.69;99290.09;1678881;84;21539;-58
2021/12/04 14:33:06;;;;;;;27.15;18.80;;;;;;;0.20;67.90;99289.70;1671510;83;21815;-58
2021/12/04 14:35:37;;;;;;;33.65;21.80;;;;;;;0.14;68.07;99291.89;1678286;84;21636;-59
2021/12/04 14:38:09;;;;;;;33.63;22.58;;;;;;;0.10;68.21;99288.91;1657326;84;21036;-60
2021/12/04 14:40:44;;;;;;;39.42;23.87;;;;;;;0.06;68.39;99285.03;1666427;84;21741;-60
2021/12/04 14:43:14;;;;;;;39.20;26.80;;;;;;;0.02;68.45;99280.76;1668771;84;21417;-59
2021/12/04 14:45:44;;;;;;;45.88;30.70;;;;;;;-0.04;68.64;99283.83;1662808;84;21462;-59
2021/12/04 14:48:27;;;;;;;35.23;22.67;;;;;;;-0.10;68.84;99283.84;1681229;84;21462;-59
2021/12/04 14:51:06;;;;;;;38.78;25.10;;;;;;;-0.12;69.00;99282.98;1671083;84;21456;-60
2021/12/04 14:53:39;;;;;;;58.13;32.65;;;;;;;-0.17;69.11;99286.05;1669601;84;21884;-61